createdAt,value
2022-08-08T00:00:53.598Z,12.90
2022-08-08T00:03:31.691Z,12.90
2022-08-08T00:06:05.669Z,12.90
2022-08-08T00:08:53.194Z,13.10
2022-08-08T00:11:24.393Z,13.30
2022-08-08T00:14:48.326Z,13.30
2022-08-08T00:17:22.870Z,13.40
2022-08-08T00:20:31.269Z,13.50
2022-08-08T00:23:08.041Z,13.50
2022-08-08T00:25:46.332Z,13.60
2022-08-08T00:28:35.942Z,13.60
2022-08-08T00:32:33.005Z,13.70
2022-08-08T00:34:18.640Z,13.80
2022-08-08T00:37:03.890Z,13.80
2022-08-08T00:41:12.597Z,13.80
2022-08-08T00:42:55.068Z,13.90
2022-08-08T00:45:40.591Z,14.00
2022-08-08T00:48:30.024Z,14.00
2022-08-08T00:51:23.961Z,13.90
2022-08-08T00:54:15.866Z,13.80
2022-08-08T00:57:29.436Z,13.80
2022-08-08T01:00:10.631Z,13.80
2022-08-08T01:04:00.978Z,13.80
2022-08-08T01:06:26.994Z,13.80
2022-08-08T01:09:34.829Z,13.80
2022-08-08T01:12:29.686Z,13.70
2022-08-08T01:15:37.134Z,13.70
2022-08-08T01:18:52.550Z,13.60
2022-08-08T01:21:36.933Z,13.50
2022-08-08T01:24:56.336Z,13.50
2022-08-08T01:27:50.608Z,13.40
2022-08-08T01:30:31.268Z,13.40
2022-08-08T01:33:27.582Z,13.30
2022-08-08T01:36:35.978Z,13.30
2022-08-08T01:39:05.459Z,13.20
2022-08-08T01:41:34.382Z,13.10
2022-08-08T01:44:31.508Z,13.10
2022-08-08T01:48:14.412Z,13.00
2022-08-08T01:50:37.600Z,12.90
2022-08-08T01:55:17.046Z,12.90
2022-08-08T01:56:48.767Z,12.90
2022-08-08T02:00:01.911Z,12.90
2022-08-08T02:02:46.483Z,12.90
2022-08-08T02:05:56.466Z,12.90
2022-08-08T02:08:47.270Z,12.90
2022-08-08T02:11:53.083Z,12.80
2022-08-08T02:14:34.531Z,12.80
2022-08-08T02:17:24.800Z,12.80
2022-08-08T02:20:09.107Z,12.80
2022-08-08T02:23:01.539Z,12.80
2022-08-08T02:25:48.738Z,12.80
2022-08-08T02:28:35.319Z,12.80
2022-08-08T02:31:58.909Z,12.80
2022-08-08T02:35:10.467Z,12.70
2022-08-08T02:37:57.163Z,12.70
2022-08-08T02:40:50.259Z,12.70
2022-08-08T02:44:38.975Z,12.70
2022-08-08T02:46:35.688Z,12.70
2022-08-08T02:53:03.695Z,12.60
2022-08-08T02:56:03.430Z,12.70
2022-08-08T02:59:25.767Z,12.60
2022-08-08T03:02:25.071Z,12.50
2022-08-08T03:05:25.228Z,12.40
2022-08-08T03:07:58.597Z,12.40
2022-08-08T03:10:33.685Z,12.30
2022-08-08T03:15:54.368Z,12.30
2022-08-08T03:16:34.475Z,12.30
2022-08-08T03:19:17.797Z,12.30
2022-08-08T03:21:58.810Z,12.20
2022-08-08T03:27:19.078Z,12.10
2022-08-08T03:29:56.416Z,12.10
2022-08-08T03:32:28.814Z,12.00
2022-08-08T03:34:56.795Z,11.90
2022-08-08T03:38:54.723Z,11.90
2022-08-08T03:40:28.922Z,11.90
2022-08-08T03:42:57.894Z,11.90
2022-08-08T03:46:07.395Z,11.90
2022-08-08T03:49:10.134Z,11.90
2022-08-08T03:51:16.815Z,11.90
2022-08-08T03:53:47.301Z,12.00
2022-08-08T03:56:31.672Z,12.00
2022-08-08T03:58:59.474Z,12.00
2022-08-08T04:02:02.475Z,12.00
2022-08-08T04:04:23.043Z,12.00
2022-08-08T04:07:01.152Z,12.00
2022-08-08T04:09:47.233Z,11.90
2022-08-08T04:12:16.132Z,11.90
2022-08-08T04:17:45.863Z,11.90
2022-08-08T04:20:13.931Z,11.90
2022-08-08T04:22:41.005Z,11.80
2022-08-08T04:25:09.106Z,11.80
2022-08-08T04:28:02.478Z,11.80
2022-08-08T04:30:29.084Z,11.90
2022-08-08T04:33:03.871Z,11.90
2022-08-08T04:35:34.464Z,12.00
2022-08-08T04:38:06.715Z,12.10
2022-08-08T04:40:36.651Z,12.10
2022-08-08T04:43:03.791Z,12.20
2022-08-08T04:45:33.535Z,12.20
2022-08-08T04:48:00.934Z,12.20
2022-08-08T04:50:34.307Z,12.30
2022-08-08T04:53:14.034Z,12.30
2022-08-08T04:55:56.058Z,12.40
2022-08-08T04:58:23.682Z,12.60
2022-08-08T05:00:51.754Z,12.70
2022-08-08T05:04:09.528Z,12.80
2022-08-08T05:06:13.295Z,12.80
2022-08-08T05:08:42.057Z,13.00
2022-08-08T05:11:09.148Z,13.00
2022-08-08T05:13:37.113Z,13.10
2022-08-08T05:16:50.777Z,13.20
2022-08-08T05:20:09.312Z,13.40
2022-08-08T05:21:59.585Z,13.60
2022-08-08T05:24:27.572Z,13.80
2022-08-08T05:26:54.331Z,13.90
2022-08-08T05:29:21.156Z,14.00
2022-08-08T05:32:03.111Z,14.00
2022-08-08T05:34:36.972Z,14.30
2022-08-08T05:37:15.801Z,14.40
2022-08-08T05:39:50.072Z,14.60
2022-08-08T05:42:19.420Z,14.70
2022-08-08T05:44:53.231Z,14.80
2022-08-08T05:47:21.569Z,15.10
2022-08-08T05:49:55.799Z,15.20
2022-08-08T05:52:32.343Z,15.50
2022-08-08T05:55:10.189Z,15.70
2022-08-08T05:58:04.427Z,15.90
2022-08-08T06:00:31.041Z,16.10
2022-08-08T06:03:02.121Z,16.30
2022-08-08T06:05:35.385Z,16.30
2022-08-08T06:08:10.343Z,16.40
2022-08-08T06:10:52.889Z,16.60
2022-08-08T06:13:22.611Z,16.80
2022-08-08T06:15:53.810Z,16.90
2022-08-08T06:18:24.401Z,17.00
2022-08-08T06:20:57.607Z,17.10
2022-08-08T06:23:53.230Z,17.20
2022-08-08T06:26:38.855Z,17.30
2022-08-08T06:29:26.550Z,17.40
2022-08-08T06:32:09.928Z,17.50
2022-08-08T06:34:39.811Z,17.60
2022-08-08T06:37:37.025Z,17.70
2022-08-08T06:40:05.079Z,17.80
2022-08-08T06:42:35.911Z,18.00
2022-08-08T06:45:05.705Z,18.10
2022-08-08T06:47:52.742Z,18.20
2022-08-08T06:50:31.956Z,18.30
2022-08-08T06:53:09.841Z,18.40
2022-08-08T06:55:42.165Z,18.50
2022-08-08T06:58:10.218Z,18.60
2022-08-08T07:00:40.955Z,18.70
2022-08-08T07:03:19.505Z,18.70
2022-08-08T07:06:03.288Z,18.80
2022-08-08T07:08:37.269Z,18.90
2022-08-08T07:11:05.940Z,19.00
2022-08-08T07:14:00.807Z,19.10
2022-08-08T07:16:54.390Z,19.10
2022-08-08T07:20:00.994Z,19.20
2022-08-08T07:22:58.169Z,19.30
2022-08-08T07:25:29.351Z,19.40
2022-08-08T07:28:18.588Z,19.60
2022-08-08T07:30:46.779Z,19.70
2022-08-08T07:33:17.628Z,19.70
2022-08-08T07:35:47.046Z,19.80
2022-08-08T07:38:20.557Z,19.80
2022-08-08T07:40:55.724Z,19.80
2022-08-08T07:43:35.261Z,19.90
2022-08-08T07:46:17.665Z,20.00
2022-08-08T07:48:50.448Z,20.10
2022-08-08T07:51:24.370Z,20.10
2022-08-08T07:54:49.079Z,20.30
2022-08-08T07:57:36.108Z,20.40
2022-08-08T08:00:13.193Z,20.50
2022-08-08T08:02:59.902Z,20.50
2022-08-08T08:05:33.192Z,20.70
2022-08-08T08:08:10.399Z,20.70
2022-08-08T08:10:37.666Z,20.80
2022-08-08T08:13:25.105Z,20.90
2022-08-08T08:16:26.571Z,21.00
2022-08-08T08:18:58.681Z,21.10
2022-08-08T08:21:44.167Z,21.10
2022-08-08T08:24:18.463Z,21.20
2022-08-08T08:26:52.993Z,21.30
2022-08-08T08:29:22.000Z,21.30
2022-08-08T08:31:57.902Z,21.40
2022-08-08T08:34:32.381Z,21.50
2022-08-08T08:37:03.324Z,21.60
2022-08-08T08:40:00.569Z,21.80
2022-08-08T08:42:29.083Z,21.90
2022-08-08T08:45:01.056Z,22.10
2022-08-08T08:47:43.725Z,22.00
2022-08-08T08:50:31.562Z,22.20
2022-08-08T08:53:04.843Z,22.60
2022-08-08T08:55:49.514Z,23.10
2022-08-08T08:58:41.491Z,23.80
2022-08-08T09:01:14.667Z,26.30
2022-08-08T09:03:47.217Z,27.40
2022-08-08T09:06:34.042Z,28.10
2022-08-08T09:09:26.368Z,28.60
2022-08-08T09:12:02.160Z,28.70
2022-08-08T09:14:35.431Z,29.50
2022-08-08T09:17:09.854Z,29.90
2022-08-08T09:21:57.822Z,30.30
2022-08-08T09:22:28.526Z,30.60
2022-08-08T09:27:56.812Z,30.80
2022-08-08T09:30:26.916Z,29.90
2022-08-08T09:33:55.620Z,30.00
2022-08-08T09:35:49.803Z,29.90
2022-08-08T09:38:55.527Z,29.40
2022-08-08T09:42:13.922Z,28.30
2022-08-08T09:44:44.036Z,28.40
2022-08-08T09:48:02.662Z,28.10
2022-08-08T09:50:09.963Z,27.70
2022-08-08T09:53:14.450Z,27.00
2022-08-08T09:56:05.145Z,26.50
2022-08-08T09:58:40.760Z,26.40
2022-08-08T10:01:15.655Z,28.00
2022-08-08T10:04:02.236Z,29.10
2022-08-08T10:06:32.870Z,29.90
2022-08-08T10:09:03.126Z,30.50
2022-08-08T10:12:27.250Z,31.20
2022-08-08T10:14:28.415Z,31.30
2022-08-08T10:17:56.503Z,30.90
2022-08-08T10:19:58.671Z,29.90
2022-08-08T10:22:28.893Z,29.40
2022-08-08T10:25:03.354Z,29.00
2022-08-08T10:27:42.891Z,28.20
2022-08-08T10:30:16.168Z,27.80
2022-08-08T10:33:00.758Z,27.40
2022-08-08T10:36:07.462Z,27.10
2022-08-08T10:38:20.389Z,26.50
2022-08-08T10:40:52.152Z,26.20
2022-08-08T10:43:20.539Z,26.20
2022-08-08T10:45:55.685Z,26.20
2022-08-08T10:48:55.863Z,26.30
2022-08-08T10:51:30.756Z,26.80
2022-08-08T10:54:00.115Z,27.30
2022-08-08T10:56:36.097Z,27.30
2022-08-08T11:01:55.138Z,27.20
2022-08-08T11:04:29.888Z,27.20
2022-08-08T11:07:06.870Z,27.30
2022-08-08T11:09:34.439Z,27.80
2022-08-08T11:12:12.717Z,28.00
2022-08-08T11:18:00.120Z,28.10
2022-08-08T11:20:29.380Z,28.40
2022-08-08T11:22:59.048Z,27.40
2022-08-08T11:25:52.531Z,27.20
2022-08-08T11:28:25.595Z,26.90
2022-08-08T11:30:56.174Z,27.00
2022-08-08T11:33:51.155Z,27.10
2022-08-08T11:36:13.426Z,27.20
2022-08-08T11:38:54.418Z,27.50
2022-08-08T11:41:27.989Z,27.40
2022-08-08T11:43:59.734Z,27.00
2022-08-08T11:46:31.538Z,26.70
2022-08-08T11:49:04.767Z,26.40
2022-08-08T11:51:39.703Z,26.30
2022-08-08T11:54:26.985Z,26.30
2022-08-08T11:56:58.003Z,26.10
2022-08-08T12:00:01.867Z,25.80
2022-08-08T12:02:32.162Z,25.60
2022-08-08T12:05:06.968Z,25.60
2022-08-08T12:08:06.125Z,25.40
2022-08-08T12:10:33.751Z,25.30
2022-08-08T12:13:05.457Z,25.30
2022-08-08T12:15:42.551Z,25.50
2022-08-08T12:18:20.807Z,25.90
2022-08-08T12:20:48.486Z,25.90
2022-08-08T12:23:25.043Z,26.00
2022-08-08T12:26:07.801Z,26.70
2022-08-08T12:28:34.729Z,26.30
2022-08-08T12:31:09.978Z,26.30
2022-08-08T12:34:01.565Z,27.10
2022-08-08T12:36:23.837Z,27.50
2022-08-08T12:38:55.875Z,28.40
2022-08-08T12:41:34.831Z,28.90
2022-08-08T12:44:10.611Z,29.00
2022-08-08T12:46:37.928Z,29.40
2022-08-08T12:49:25.263Z,30.00
2022-08-08T12:51:58.457Z,29.40
2022-08-08T12:54:28.749Z,29.00
2022-08-08T12:56:55.863Z,28.50
2022-08-08T12:59:44.725Z,28.90
2022-08-08T13:02:28.106Z,28.50
2022-08-08T13:04:58.883Z,28.00
2022-08-08T13:08:03.129Z,28.10
2022-08-08T13:13:35.157Z,28.00
2022-08-08T13:16:25.354Z,28.60
2022-08-08T13:18:57.255Z,29.00
2022-08-08T13:21:48.592Z,28.80
2022-08-08T13:24:19.090Z,28.70
2022-08-08T13:27:11.965Z,28.80
2022-08-08T13:32:43.825Z,28.90
2022-08-08T13:35:11.737Z,28.90
2022-08-08T13:38:06.583Z,29.00
2022-08-08T13:40:34.997Z,28.70
2022-08-08T13:43:03.648Z,27.90
2022-08-08T13:45:31.078Z,27.70
2022-08-08T13:48:02.944Z,27.90
2022-08-08T13:50:44.080Z,27.80
2022-08-08T13:53:33.758Z,27.80
2022-08-08T13:56:02.591Z,28.20
2022-08-08T13:58:30.174Z,28.40
2022-08-08T14:00:57.374Z,28.20
2022-08-08T14:03:53.648Z,27.80
2022-08-08T14:06:32.380Z,27.60
2022-08-08T14:09:00.580Z,27.60
2022-08-08T14:11:48.607Z,28.00
2022-08-08T14:14:20.563Z,27.80
2022-08-08T14:16:51.253Z,27.60
2022-08-08T14:19:22.850Z,27.20
2022-08-08T14:22:19.669Z,27.00
2022-08-08T14:24:56.398Z,26.90
2022-08-08T14:27:33.359Z,26.90
2022-08-08T14:30:08.246Z,26.70
2022-08-08T14:32:52.719Z,26.30
2022-08-08T14:35:25.007Z,25.90
2022-08-08T14:38:09.384Z,26.00
2022-08-08T14:40:53.713Z,26.10
2022-08-08T14:44:02.248Z,26.40
2022-08-08T14:46:22.219Z,26.40
2022-08-08T14:49:02.073Z,26.50
2022-08-08T14:51:52.130Z,27.00
2022-08-08T14:54:28.719Z,27.30
2022-08-08T14:56:56.001Z,27.80
2022-08-08T14:59:43.872Z,28.40
2022-08-08T15:02:10.804Z,28.30
2022-08-08T15:07:39.124Z,27.00
2022-08-08T15:12:54.483Z,27.10
2022-08-08T15:16:02.798Z,28.00
2022-08-08T15:18:10.606Z,28.50
2022-08-08T15:20:37.761Z,28.00
2022-08-08T15:23:05.373Z,27.60
2022-08-08T15:25:33.151Z,27.20
2022-08-08T15:28:32.589Z,26.70
2022-08-08T15:30:48.745Z,26.50
2022-08-08T15:33:21.025Z,26.60
2022-08-08T15:36:02.669Z,26.20
2022-08-08T15:38:29.663Z,25.90
2022-08-08T15:40:57.195Z,25.70
2022-08-08T15:43:36.267Z,26.20
2022-08-08T15:46:05.206Z,26.30
2022-08-08T15:48:32.025Z,26.30
2022-08-08T15:50:59.208Z,26.60
2022-08-08T15:53:26.119Z,26.60
2022-08-08T15:55:56.562Z,26.60
2022-08-08T15:58:28.140Z,26.70
2022-08-08T16:00:58.558Z,26.70
2022-08-08T16:03:25.423Z,26.30
2022-08-08T16:06:00.966Z,26.00
2022-08-08T16:13:29.355Z,25.70
2022-08-08T16:14:02.171Z,25.80
2022-08-08T16:16:30.070Z,25.60
2022-08-08T16:18:58.274Z,25.30
2022-08-08T16:21:28.229Z,25.10
2022-08-08T16:23:56.511Z,25.00
2022-08-08T16:26:34.055Z,25.00
2022-08-08T16:29:08.745Z,24.90
2022-08-08T16:31:37.786Z,24.80
2022-08-08T16:34:04.691Z,24.60
2022-08-08T16:36:33.519Z,24.50
2022-08-08T16:41:51.085Z,24.00
2022-08-08T16:44:27.951Z,23.70
2022-08-08T16:47:31.482Z,23.60
2022-08-08T16:50:13.158Z,23.30
2022-08-08T16:55:04.616Z,23.20
2022-08-08T16:55:52.982Z,23.20
2022-08-08T16:58:17.913Z,23.10
2022-08-08T17:00:48.651Z,22.90
2022-08-08T17:03:16.560Z,22.70
2022-08-08T17:05:51.476Z,22.70
2022-08-08T17:08:18.219Z,22.60
2022-08-08T17:10:53.482Z,22.40
2022-08-08T17:13:27.449Z,22.30
2022-08-08T17:16:15.297Z,22.30
2022-08-08T17:18:43.147Z,22.20
2022-08-08T17:21:12.663Z,22.10
2022-08-08T17:24:01.737Z,21.90
2022-08-08T17:26:29.396Z,21.80
2022-08-08T17:28:57.123Z,21.80
2022-08-08T17:31:44.243Z,21.70
2022-08-08T17:34:53.943Z,21.60
2022-08-08T17:37:03.901Z,21.60
2022-08-08T17:40:04.451Z,21.50
2022-08-08T17:42:21.126Z,21.40
2022-08-08T17:44:49.979Z,21.30
2022-08-08T17:47:23.698Z,21.40
2022-08-08T17:50:05.498Z,21.30
2022-08-08T17:52:33.408Z,21.20
2022-08-08T17:55:05.813Z,21.10
2022-08-08T17:57:49.475Z,21.00
2022-08-08T18:00:19.820Z,21.00
2022-08-08T18:03:07.437Z,20.90
2022-08-08T18:05:44.135Z,20.80
2022-08-08T18:08:25.257Z,20.80
2022-08-08T18:11:17.368Z,20.80
2022-08-08T18:13:47.986Z,20.70
2022-08-08T18:16:16.914Z,20.70
2022-08-08T18:18:56.398Z,20.70
2022-08-08T18:21:58.769Z,20.60
2022-08-08T18:24:21.435Z,20.50
2022-08-08T18:26:53.765Z,20.50
2022-08-08T18:29:30.184Z,20.50
2022-08-08T18:32:08.515Z,20.40
2022-08-08T18:37:34.296Z,20.40
2022-08-08T18:42:50.190Z,20.20
2022-08-08T18:46:00.782Z,20.30
2022-08-08T18:48:07.769Z,20.20
2022-08-08T18:50:39.655Z,20.20
2022-08-08T18:53:17.058Z,20.10
2022-08-08T18:55:46.442Z,20.10
2022-08-08T18:58:13.851Z,20.00
2022-08-08T19:00:46.409Z,20.00
2022-08-08T19:03:13.499Z,19.90
2022-08-08T19:08:29.319Z,19.90
2022-08-08T19:10:58.915Z,19.90
2022-08-08T19:13:53.194Z,19.80
2022-08-08T19:16:18.968Z,19.80
2022-08-08T19:18:48.497Z,19.80
2022-08-08T19:21:29.431Z,19.70
2022-08-08T19:23:58.070Z,19.70
2022-08-08T19:26:30.036Z,19.70
2022-08-08T19:28:58.935Z,19.70
2022-08-08T19:31:31.666Z,19.70
2022-08-08T19:34:30.207Z,19.70
2022-08-08T19:36:51.025Z,19.60
2022-08-08T19:39:18.119Z,19.60
2022-08-08T19:41:46.441Z,19.50
2022-08-08T19:44:27.096Z,19.50
2022-08-08T19:47:01.719Z,19.50
2022-08-08T19:49:37.674Z,19.50
2022-08-08T19:52:06.378Z,19.50
2022-08-08T19:54:33.907Z,19.50
2022-08-08T19:57:04.112Z,19.40
2022-08-08T19:59:34.949Z,19.40
2022-08-08T20:02:04.265Z,19.40
2022-08-08T20:04:33.591Z,19.30
2022-08-08T20:08:28.449Z,19.30
2022-08-08T20:09:56.409Z,19.20
2022-08-08T20:12:32.911Z,19.10
2022-08-08T20:15:16.842Z,19.10
2022-08-08T20:17:46.225Z,19.00
2022-08-08T20:20:19.139Z,18.90
2022-08-08T20:22:48.759Z,18.80
2022-08-08T20:25:20.654Z,18.80
2022-08-08T20:27:50.409Z,18.70
2022-08-08T20:30:52.801Z,18.60
2022-08-08T20:33:19.777Z,18.70
2022-08-08T20:35:57.585Z,18.60
2022-08-08T20:38:32.395Z,18.50
2022-08-08T20:41:00.884Z,18.40
2022-08-08T20:43:43.698Z,18.40
2022-08-08T20:49:02.119Z,18.20
2022-08-08T20:51:31.660Z,18.20
2022-08-08T20:54:03.598Z,18.10
2022-08-08T20:57:16.660Z,18.00
2022-08-08T20:59:24.825Z,17.80
2022-08-08T21:02:07.450Z,17.70
2022-08-08T21:04:34.714Z,17.60
2022-08-08T21:07:04.942Z,17.40
2022-08-08T21:09:48.597Z,17.40
2022-08-08T21:12:32.137Z,17.20
2022-08-08T21:15:07.045Z,17.00
2022-08-08T21:17:35.044Z,16.80
2022-08-08T21:22:48.810Z,16.60
2022-08-08T21:25:17.004Z,16.40
2022-08-08T21:28:13.412Z,16.40
2022-08-08T21:30:30.715Z,16.30
2022-08-08T21:32:57.676Z,16.10
2022-08-08T21:36:17.840Z,16.10
2022-08-08T21:38:16.240Z,16.00
2022-08-08T21:40:56.397Z,15.90
2022-08-08T21:43:31.088Z,15.90
2022-08-08T21:48:08.620Z,15.90
2022-08-08T21:48:53.646Z,15.80
2022-08-08T21:54:17.052Z,15.70
2022-08-08T21:54:33.256Z,15.80
2022-08-08T21:57:02.792Z,15.90
2022-08-08T21:59:44.223Z,16.00
2022-08-08T22:02:19.577Z,16.10
2022-08-08T22:04:51.865Z,16.00
2022-08-08T22:07:19.019Z,16.00
2022-08-08T22:09:46.174Z,15.80
2022-08-08T22:12:15.135Z,15.70
2022-08-08T22:14:47.263Z,15.70
2022-08-08T22:17:17.092Z,15.60
2022-08-08T22:20:11.502Z,15.50
2022-08-08T22:22:34.482Z,15.40
2022-08-08T22:28:02.875Z,15.10
2022-08-08T22:30:32.560Z,15.10
2022-08-08T22:33:01.242Z,15.00
2022-08-08T22:36:03.571Z,14.90
2022-08-08T22:38:17.788Z,14.80
2022-08-08T22:40:45.166Z,14.70
2022-08-08T22:43:15.737Z,14.70
2022-08-08T22:45:43.896Z,14.70
2022-08-08T22:48:13.915Z,14.70
2022-08-08T22:50:40.817Z,14.70
2022-08-08T22:54:28.262Z,14.80
2022-08-08T22:55:59.641Z,14.80
2022-08-08T22:58:34.143Z,14.90
2022-08-08T23:01:16.686Z,14.90
2022-08-08T23:03:53.574Z,15.00
2022-08-08T23:06:21.743Z,15.00
2022-08-08T23:08:55.820Z,14.80
2022-08-08T23:12:17.445Z,14.60
2022-08-08T23:17:00.666Z,14.40
2022-08-08T23:19:31.050Z,14.30
2022-08-08T23:22:04.982Z,14.30
2022-08-08T23:24:36.800Z,14.20
2022-08-08T23:27:09.817Z,14.10
2022-08-08T23:29:37.584Z,14.10
2022-08-08T23:32:05.585Z,13.90
2022-08-08T23:34:32.598Z,13.80
2022-08-08T23:37:02.626Z,13.70
2022-08-08T23:39:49.297Z,13.60
2022-08-08T23:42:21.446Z,13.50
2022-08-08T23:44:48.402Z,13.50
2022-08-08T23:49:01.116Z,13.50
2022-08-08T23:50:05.369Z,13.50
2022-08-08T23:52:33.090Z,13.40
2022-08-08T23:55:22.293Z,13.30
2022-08-08T23:57:52.192Z,13.20
